CPX304 Details

Departure: Tokyo-Narita International Airport (RJAA)
Arrival: Guam International Airport (PGUM)
Route: CUPID Y820 SUNNS Y820 ADKAK G223 DAGDA A337 NOGAK A337 TEGOD G205 GUYES


Current Weather Information
RJAA 212230Z 05012KT 9999 FEW030 BKN/// 17/12 Q1006 NOSIG RMK 1CU030 A2971
PGUM 212154Z 20005KT 10SM CLR 29/24 A2986 RMK AO2 SLP103 T02890244